createdAt,value
2022-10-30T04:39:12.737Z,7.88
2022-10-30T04:41:39.924Z,8.40
2022-10-30T04:44:06.870Z,6.07
2022-10-30T04:46:33.947Z,6.22
2022-10-30T04:49:00.843Z,8.13
2022-10-30T04:51:27.805Z,4.68
2022-10-30T04:53:55.211Z,10.80
2022-10-30T04:56:22.191Z,8.15
2022-10-30T04:58:49.123Z,13.43
2022-10-30T05:01:16.128Z,3.30
2022-10-30T05:03:43.288Z,7.80
2022-10-30T05:06:19.876Z,4.22
2022-10-30T05:08:46.812Z,14.20
2022-10-30T05:11:13.903Z,3.00
2022-10-30T05:13:40.826Z,4.20
2022-10-30T05:16:08.242Z,7.20
2022-10-30T05:18:35.135Z,6.80
2022-10-30T05:21:02.174Z,7.50
2022-10-30T05:23:29.054Z,14.07
2022-10-30T05:25:55.926Z,12.48
2022-10-30T05:28:22.794Z,10.18
2022-10-30T05:30:53.944Z,11.82
2022-10-30T05:33:22.562Z,11.07
2022-10-30T05:35:50.253Z,21.15
2022-10-30T05:38:17.144Z,16.20
2022-10-30T05:40:47.072Z,27.52
2022-10-30T05:43:14.010Z,27.45
2022-10-30T05:45:40.973Z,28.70
2022-10-30T05:48:08.241Z,25.23
2022-10-30T05:50:35.580Z,16.65
2022-10-30T05:53:05.308Z,25.20
2022-10-30T05:55:32.939Z,17.00
2022-10-30T05:58:02.387Z,17.63
2022-10-30T06:00:31.807Z,22.40
2022-10-30T06:03:07.476Z,34.78
2022-10-30T06:05:36.862Z,23.67
2022-10-30T06:08:05.340Z,25.40
2022-10-30T06:10:32.536Z,17.65
2022-10-30T06:13:02.333Z,23.73
2022-10-30T06:15:30.387Z,18.52
2022-10-30T06:17:58.096Z,19.60
2022-10-30T06:20:28.265Z,26.45
2022-10-30T06:23:06.939Z,16.20
2022-10-30T06:25:40.616Z,15.85
2022-10-30T06:28:10.399Z,18.55
2022-10-30T06:30:37.389Z,29.55
2022-10-30T06:33:05.796Z,31.20
2022-10-30T06:35:33.067Z,21.25
2022-10-30T06:38:02.817Z,33.05
2022-10-30T06:40:30.483Z,16.55
2022-10-30T06:42:58.247Z,23.08
2022-10-30T06:45:25.477Z,19.65
2022-10-30T06:47:52.414Z,24.58
2022-10-30T06:50:21.967Z,27.05
2022-10-30T06:52:49.558Z,32.60
2022-10-30T06:55:17.503Z,29.85
2022-10-30T06:57:44.552Z,22.52
2022-10-30T07:00:12.881Z,20.63
2022-10-30T07:02:39.904Z,27.73
2022-10-30T07:05:07.814Z,25.63
2022-10-30T07:07:34.996Z,22.85
2022-10-30T07:10:02.403Z,23.73
2022-10-30T07:12:29.435Z,18.45
2022-10-30T07:14:56.382Z,38.20
2022-10-30T07:17:23.485Z,21.15
2022-10-30T07:19:50.482Z,25.77
2022-10-30T07:22:17.545Z,14.98
2022-10-30T07:24:44.476Z,28.38
2022-10-30T07:27:11.360Z,20.48
2022-10-30T07:29:38.302Z,23.65
2022-10-30T07:32:05.498Z,26.98
2022-10-30T07:34:32.725Z,30.52
2022-10-30T07:36:59.670Z,27.58
2022-10-30T07:39:26.623Z,19.80
2022-10-30T07:41:53.536Z,29.52
2022-10-30T07:44:20.495Z,23.17
2022-10-30T07:46:47.369Z,20.35
2022-10-30T07:49:14.254Z,24.75
2022-10-30T07:51:41.568Z,26.50
2022-10-30T07:54:09.020Z,25.52
2022-10-30T07:56:36.419Z,16.50
2022-10-30T07:59:03.372Z,19.27
2022-10-30T08:01:30.405Z,27.85
2022-10-30T08:03:57.566Z,30.63
2022-10-30T08:06:27.028Z,20.08
2022-10-30T08:08:54.414Z,22.50
2022-10-30T08:11:21.420Z,18.52
2022-10-30T08:13:48.327Z,24.35
2022-10-30T08:16:15.279Z,24.73
2022-10-30T08:18:42.712Z,21.88
2022-10-30T08:21:10.524Z,19.27
2022-10-30T08:23:37.493Z,13.40
2022-10-30T08:26:05.551Z,25.08
2022-10-30T08:28:33.429Z,15.82
2022-10-30T08:31:02.577Z,23.05
2022-10-30T08:33:29.666Z,35.00
2022-10-30T08:35:59.994Z,17.60
2022-10-30T08:38:28.100Z,19.75
2022-10-30T08:40:55.164Z,26.58
2022-10-30T08:43:22.765Z,22.75
2022-10-30T08:45:49.705Z,18.67
2022-10-30T08:48:16.899Z,20.88
2022-10-30T08:50:44.852Z,23.85
2022-10-30T08:53:14.528Z,33.97
2022-10-30T08:55:41.612Z,10.82
2022-10-30T08:58:08.836Z,19.70
2022-10-30T09:00:35.892Z,26.90
2022-10-30T09:03:03.453Z,20.25
2022-10-30T09:05:30.729Z,19.83
2022-10-30T09:08:02.058Z,22.52
2022-10-30T09:10:30.833Z,22.38
2022-10-30T09:12:59.001Z,23.65
2022-10-30T09:15:26.965Z,23.85
2022-10-30T09:17:57.851Z,20.42
2022-10-30T09:20:25.266Z,20.55
2022-10-30T09:22:52.193Z,21.65
2022-10-30T09:25:19.586Z,17.95
2022-10-30T09:27:47.329Z,18.50
2022-10-30T09:30:14.926Z,21.75
2022-10-30T09:32:41.935Z,16.65
2022-10-30T09:35:09.328Z,15.63
2022-10-30T09:37:40.287Z,25.67
2022-10-30T09:40:08.612Z,17.30
2022-10-30T09:42:42.981Z,20.08
2022-10-30T09:45:40.474Z,24.55
2022-10-30T09:48:34.802Z,26.95
2022-10-30T09:51:24.693Z,30.02
2022-10-30T09:54:30.149Z,19.63
2022-10-30T09:57:20.947Z,23.73
2022-10-30T10:00:10.527Z,22.45
2022-10-30T10:02:49.698Z,29.35
2022-10-30T10:05:25.989Z,20.75
2022-10-30T10:08:02.886Z,20.17
2022-10-30T10:11:14.537Z,16.35
2022-10-30T10:13:42.027Z,25.33
2022-10-30T10:16:23.875Z,15.10
2022-10-30T10:19:00.941Z,21.42
2022-10-30T10:21:29.859Z,19.52
2022-10-30T10:24:00.865Z,15.05
2022-10-30T10:26:48.800Z,18.40
2022-10-30T10:29:50.522Z,13.23
2022-10-30T10:32:49.193Z,16.75
2022-10-30T10:35:52.836Z,23.23
2022-10-30T10:38:35.595Z,15.93
2022-10-30T10:41:43.753Z,23.75
2022-10-30T10:44:22.827Z,19.85
2022-10-30T10:46:55.711Z,21.88
2022-10-30T10:49:41.395Z,20.35
2022-10-30T10:52:23.073Z,18.60
2022-10-30T10:54:57.696Z,25.42
2022-10-30T10:57:34.718Z,24.17
2022-10-30T11:00:29.134Z,19.05
2022-10-30T11:03:07.956Z,24.88
2022-10-30T11:05:41.923Z,22.38
2022-10-30T11:08:12.413Z,28.70
2022-10-30T11:10:39.890Z,23.15
2022-10-30T11:13:06.874Z,18.85
2022-10-30T11:15:46.241Z,20.70
2022-10-30T11:18:14.739Z,22.92
2022-10-30T11:21:03.862Z,22.52
2022-10-30T11:23:38.737Z,18.15
2022-10-30T11:26:26.523Z,21.00
2022-10-30T11:28:58.384Z,21.27
2022-10-30T11:31:37.884Z,23.67
2022-10-30T11:34:24.269Z,18.13
2022-10-30T11:36:52.952Z,21.00
2022-10-30T11:39:24.882Z,25.05
2022-10-30T11:42:17.454Z,26.90
2022-10-30T11:44:51.574Z,25.77
2022-10-30T11:47:29.373Z,16.17
2022-10-30T11:50:00.030Z,24.10
2022-10-30T11:52:27.782Z,27.70
2022-10-30T11:55:08.301Z,23.70
2022-10-30T11:57:46.290Z,20.95
2022-10-30T12:00:28.392Z,25.00
2022-10-30T12:02:57.626Z,24.23
2022-10-30T12:05:33.231Z,18.42
2022-10-30T12:08:09.169Z,28.75
2022-10-30T12:10:44.185Z,18.77
2022-10-30T12:13:20.026Z,24.13
2022-10-30T12:15:49.856Z,23.15
2022-10-30T12:18:21.900Z,24.77
2022-10-30T12:20:53.076Z,25.65
2022-10-30T12:23:24.707Z,20.60
2022-10-30T12:25:58.050Z,27.83
2022-10-30T12:28:28.369Z,19.85
2022-10-30T12:31:17.762Z,26.17
2022-10-30T12:33:50.462Z,28.45
2022-10-30T12:36:21.313Z,20.38
2022-10-30T12:38:58.858Z,23.75
2022-10-30T12:41:40.527Z,25.77
2022-10-30T12:44:38.913Z,26.50
2022-10-30T12:47:13.816Z,26.92
2022-10-30T12:49:40.930Z,25.25
2022-10-30T12:52:24.293Z,21.63
2022-10-30T12:54:58.809Z,22.05
2022-10-30T12:57:33.539Z,21.80
2022-10-30T13:00:15.739Z,25.98
2022-10-30T13:02:52.989Z,17.23
2022-10-30T13:06:08.068Z,20.77
2022-10-30T13:08:47.168Z,23.77
2022-10-30T13:11:32.956Z,25.10
2022-10-30T13:14:02.006Z,16.40
2022-10-30T13:16:31.928Z,22.50
2022-10-30T13:19:01.356Z,21.90
2022-10-30T13:21:58.677Z,17.38
2022-10-30T13:24:51.227Z,29.23
2022-10-30T13:27:25.123Z,25.00
2022-10-30T13:30:01.591Z,20.90
2022-10-30T13:32:41.512Z,24.20
2022-10-30T13:35:26.058Z,21.65
2022-10-30T13:38:32.054Z,21.65
2022-10-30T13:41:13.740Z,24.52
2022-10-30T13:43:55.981Z,32.22
2022-10-30T13:46:34.821Z,22.45
2022-10-30T13:49:28.352Z,24.90
2022-10-30T13:51:58.262Z,23.73
2022-10-30T13:54:38.771Z,26.75
2022-10-30T13:57:52.914Z,20.63
2022-10-30T14:00:22.842Z,20.42
2022-10-30T14:03:27.110Z,21.05
2022-10-30T14:06:12.819Z,27.98
2022-10-30T14:08:47.832Z,23.10
2022-10-30T14:11:15.086Z,16.95
2022-10-30T14:13:56.851Z,21.73
2022-10-30T14:16:37.874Z,25.02
2022-10-30T14:19:17.825Z,24.88
2022-10-30T14:21:58.391Z,22.48
2022-10-30T14:24:29.691Z,24.08
2022-10-30T14:26:56.605Z,35.42
2022-10-30T14:29:50.587Z,23.75
2022-10-30T14:32:20.291Z,21.95
2022-10-30T14:34:53.351Z,22.65
2022-10-30T14:37:23.287Z,16.88
2022-10-30T14:39:51.679Z,27.30
2022-10-30T14:42:48.419Z,27.02
2022-10-30T14:45:25.085Z,20.85
2022-10-30T14:48:01.982Z,23.70
2022-10-30T14:50:53.607Z,25.92
2022-10-30T14:53:47.629Z,33.95
2022-10-30T14:59:13.919Z,24.98
2022-10-30T15:01:54.863Z,22.90
2022-10-30T15:04:57.335Z,28.67
2022-10-30T15:07:43.100Z,18.42
2022-10-30T15:10:32.995Z,19.98
2022-10-30T15:13:20.285Z,22.77
2022-10-30T15:15:59.446Z,24.17
2022-10-30T15:18:30.294Z,22.33
2022-10-30T15:21:04.234Z,24.25
2022-10-30T15:23:34.631Z,16.35
2022-10-30T15:26:17.540Z,26.48
2022-10-30T15:28:50.513Z,27.50
2022-10-30T15:31:22.839Z,33.00
2022-10-30T15:33:50.053Z,31.88
2022-10-30T15:36:22.952Z,39.83
2022-10-30T15:39:14.738Z,32.67
2022-10-30T15:41:48.987Z,25.80
2022-10-30T15:44:24.019Z,26.17
2022-10-30T15:46:54.122Z,25.77
2022-10-30T15:49:30.504Z,32.42
2022-10-30T15:51:58.060Z,20.95
2022-10-30T15:54:26.983Z,21.52
2022-10-30T15:57:36.514Z,31.05
2022-10-30T15:59:55.645Z,36.05
2022-10-30T16:02:24.713Z,35.63
2022-10-30T16:04:51.724Z,36.53
2022-10-30T16:07:27.385Z,21.65
2022-10-30T16:10:01.110Z,35.28
2022-10-30T16:12:30.612Z,35.65
2022-10-30T16:15:00.361Z,31.42
2022-10-30T16:17:27.614Z,29.02
2022-10-30T16:19:59.850Z,31.85
2022-10-30T16:22:37.514Z,20.67
2022-10-30T16:25:08.889Z,35.78
2022-10-30T16:27:44.272Z,35.22
2022-10-30T16:30:14.638Z,33.85
2022-10-30T16:32:43.147Z,35.40
2022-10-30T16:35:11.656Z,29.55
2022-10-30T16:37:40.872Z,30.50
2022-10-30T16:40:17.059Z,31.35
2022-10-30T16:42:56.394Z,26.48
2022-10-30T16:45:23.427Z,22.58
2022-10-30T16:48:01.959Z,26.80
2022-10-30T16:50:38.215Z,27.10
2022-10-30T16:53:20.592Z,42.70
2022-10-30T16:55:47.829Z,27.70
2022-10-30T16:58:16.531Z,34.72
2022-10-30T17:00:50.880Z,15.15
2022-10-30T17:03:26.716Z,18.30
2022-10-30T17:06:35.041Z,34.72
2022-10-30T17:09:08.462Z,33.05
2022-10-30T17:11:36.969Z,24.50
2022-10-30T17:14:21.217Z,31.20
2022-10-30T17:16:56.825Z,19.10
2022-10-30T17:19:32.659Z,21.17
2022-10-30T17:24:33.285Z,20.20
2022-10-30T17:27:04.796Z,28.45
2022-10-30T17:29:53.420Z,28.20
2022-10-30T17:32:29.382Z,27.10
2022-10-30T17:37:30.068Z,21.23
2022-10-30T17:39:57.015Z,22.55
2022-10-30T17:42:27.830Z,29.65
2022-10-30T17:44:55.094Z,22.27
2022-10-30T17:47:23.850Z,22.60
2022-10-30T17:49:52.160Z,13.38
2022-10-30T17:52:23.003Z,10.98
2022-10-30T17:54:50.158Z,22.95
2022-10-30T17:57:18.576Z,20.55
2022-10-30T17:59:45.447Z,16.20
2022-10-30T18:02:17.887Z,19.27
2022-10-30T18:04:49.044Z,10.90
2022-10-30T18:07:18.962Z,13.98
2022-10-30T18:09:47.055Z,16.05
2022-10-30T18:12:17.401Z,9.63
2022-10-30T18:14:46.741Z,8.20
2022-10-30T18:17:14.017Z,12.40
2022-10-30T18:19:40.911Z,8.63
2022-10-30T18:22:09.540Z,12.63
2022-10-30T18:24:37.578Z,21.90
2022-10-30T18:27:07.010Z,13.50
2022-10-30T18:29:36.097Z,12.57
2022-10-30T18:32:09.410Z,16.25
2022-10-30T18:34:36.719Z,18.13
2022-10-30T18:37:03.941Z,16.45
2022-10-30T18:39:32.549Z,17.23
2022-10-30T18:42:00.649Z,12.20
2022-10-30T18:44:30.617Z,11.15
2022-10-30T18:47:02.663Z,12.52
2022-10-30T18:49:33.675Z,15.50
2022-10-30T18:52:02.762Z,15.63
2022-10-30T18:54:31.151Z,17.35
2022-10-30T18:56:58.417Z,19.30
2022-10-30T18:59:25.262Z,14.63
2022-10-30T19:01:54.038Z,17.10
2022-10-30T19:04:25.110Z,11.18
2022-10-30T19:06:55.135Z,13.23
2022-10-30T19:09:23.696Z,9.45
2022-10-30T19:11:52.130Z,20.75
2022-10-30T19:14:19.047Z,23.13
2022-10-30T19:16:47.175Z,12.80
2022-10-30T19:19:15.430Z,14.88
2022-10-30T19:21:46.550Z,15.88
2022-10-30T19:24:15.260Z,11.48
2022-10-30T19:26:42.143Z,18.23
2022-10-30T19:29:09.822Z,10.63
2022-10-30T19:31:36.713Z,9.48
2022-10-30T19:34:07.810Z,13.52
2022-10-30T19:36:37.539Z,8.68
2022-10-30T19:39:11.602Z,13.45
2022-10-30T19:41:40.051Z,8.88
2022-10-30T19:46:57.238Z,5.15
2022-10-30T19:49:26.510Z,7.22
2022-10-30T19:51:58.236Z,10.30
2022-10-30T19:54:25.091Z,5.65
2022-10-30T19:57:00.244Z,14.88
2022-10-30T20:02:20.381Z,6.38
2022-10-30T20:04:50.716Z,6.00
2022-10-30T20:07:22.193Z,5.78
2022-10-30T20:09:53.304Z,6.15
2022-10-30T20:12:24.823Z,5.70
2022-10-30T20:14:55.222Z,7.35
2022-10-30T20:17:24.259Z,5.30
2022-10-30T20:19:52.665Z,5.70
2022-10-30T20:22:28.063Z,10.48
2022-10-30T20:25:00.045Z,6.90
2022-10-30T20:27:37.945Z,3.75
2022-10-30T20:30:16.187Z,6.10
2022-10-30T20:32:44.954Z,6.78
2022-10-30T20:35:13.929Z,5.57
2022-10-30T20:37:46.380Z,8.40
2022-10-30T20:40:16.441Z,14.02
2022-10-30T20:45:18.026Z,9.32
2022-10-30T20:47:47.115Z,14.48
2022-10-30T20:50:16.535Z,11.40
2022-10-30T20:52:44.596Z,10.43
2022-10-30T20:55:12.710Z,8.98
2022-10-30T20:57:45.860Z,8.88
2022-10-30T21:00:14.414Z,10.18
2022-10-30T21:02:41.434Z,11.57
2022-10-30T21:05:12.013Z,7.57
2022-10-30T21:07:45.480Z,8.55
2022-10-30T21:10:17.072Z,8.50
2022-10-30T21:12:46.005Z,7.15
2022-10-30T21:15:13.280Z,9.52
2022-10-30T21:17:42.570Z,9.07
2022-10-30T21:20:14.218Z,11.02
2022-10-30T21:22:47.043Z,5.90
2022-10-30T21:25:16.045Z,5.75
2022-10-30T21:27:43.024Z,10.50
2022-10-30T21:30:16.933Z,7.00
2022-10-30T21:32:43.787Z,5.22
2022-10-30T21:35:11.558Z,8.23
2022-10-30T21:37:41.221Z,9.15
2022-10-30T21:40:12.037Z,7.20
2022-10-30T21:42:38.988Z,6.65
2022-10-30T21:45:12.573Z,8.00
2022-10-30T21:47:40.011Z,5.20
2022-10-30T21:50:11.681Z,10.52
2022-10-30T21:52:40.767Z,8.10
2022-10-30T21:55:08.464Z,3.67
2022-10-30T21:57:35.527Z,8.20
2022-10-30T22:00:06.319Z,5.85
2022-10-30T22:02:35.536Z,7.68
2022-10-30T22:05:02.616Z,4.95
2022-10-30T22:07:29.490Z,8.02
2022-10-30T22:10:02.010Z,13.73
2022-10-30T22:12:29.316Z,6.22
2022-10-30T22:14:56.352Z,6.82
2022-10-30T22:17:23.314Z,5.55
2022-10-30T22:19:50.233Z,5.88
2022-10-30T22:22:17.209Z,6.65
2022-10-30T22:24:45.649Z,9.35
2022-10-30T22:27:12.756Z,7.43
2022-10-30T22:29:39.671Z,9.43
2022-10-30T22:32:06.536Z,6.95
2022-10-30T22:34:33.446Z,4.53
2022-10-30T22:37:00.350Z,4.18
2022-10-30T22:39:28.233Z,11.82
2022-10-30T22:41:55.127Z,8.40
2022-10-30T22:44:23.063Z,9.13
2022-10-30T22:46:51.045Z,5.22
2022-10-30T22:49:17.913Z,3.65
2022-10-30T22:51:44.796Z,7.90
2022-10-30T22:54:12.703Z,5.40
2022-10-30T22:56:40.779Z,7.20
2022-10-30T22:59:11.911Z,6.20
2022-10-30T23:01:40.045Z,6.55
2022-10-30T23:04:08.213Z,6.13
2022-10-30T23:06:36.096Z,6.22
2022-10-30T23:09:07.344Z,4.03
2022-10-30T23:11:34.589Z,5.78
2022-10-30T23:14:01.752Z,3.55
2022-10-30T23:16:28.990Z,4.75
2022-10-30T23:18:58.077Z,2.80
2022-10-30T23:21:26.861Z,4.90
2022-10-30T23:23:54.278Z,2.63
2022-10-30T23:26:30.578Z,3.92
2022-10-30T23:28:58.994Z,8.95
2022-10-30T23:31:28.654Z,2.58
2022-10-30T23:34:00.812Z,4.55
2022-10-30T23:36:28.268Z,1.50
2022-10-30T23:38:57.613Z,2.08
2022-10-30T23:41:26.863Z,7.38
2022-10-30T23:43:55.047Z,4.55
2022-10-30T23:46:22.358Z,3.63
2022-10-30T23:48:49.409Z,3.70
2022-10-30T23:51:16.879Z,3.80
2022-10-30T23:53:43.764Z,4.97
2022-10-30T23:56:10.920Z,5.05
2022-10-30T23:58:37.839Z,4.30
